createdAt,value
2023-01-13T00:00:16.038Z,5.13
2023-01-13T00:02:42.996Z,5.55
2023-01-13T00:05:10.292Z,5.03
2023-01-13T00:07:40.414Z,6.25
2023-01-13T00:10:10.074Z,6.50
2023-01-13T00:12:41.671Z,7.40
2023-01-13T00:15:09.136Z,5.35
2023-01-13T00:17:35.750Z,7.22
2023-01-13T00:20:02.778Z,5.47
2023-01-13T00:22:29.449Z,6.53
2023-01-13T00:24:58.225Z,7.75
2023-01-13T00:27:25.543Z,6.72
2023-01-13T00:29:52.320Z,6.97
2023-01-13T00:32:19.026Z,7.95
2023-01-13T00:34:45.860Z,6.70
2023-01-13T00:37:14.685Z,6.57
2023-01-13T00:39:41.881Z,7.10
2023-01-13T00:42:27.512Z,6.95
2023-01-13T00:44:54.215Z,6.75
2023-01-13T00:47:20.787Z,6.13
2023-01-13T00:49:47.693Z,6.35
2023-01-13T00:52:14.288Z,7.03
2023-01-13T00:54:41.047Z,6.40
2023-01-13T00:57:08.614Z,6.45
2023-01-13T00:59:35.202Z,7.28
2023-01-13T01:02:02.074Z,5.95
2023-01-13T01:04:28.853Z,8.13
2023-01-13T01:06:55.496Z,6.53
2023-01-13T01:09:22.265Z,6.97
2023-01-13T01:11:48.966Z,7.40
2023-01-13T01:14:15.610Z,8.48
2023-01-13T01:16:42.528Z,7.85
2023-01-13T01:19:10.515Z,8.55
2023-01-13T01:21:37.218Z,6.68
2023-01-13T01:24:05.106Z,6.75
2023-01-13T01:26:32.909Z,7.72
2023-01-13T01:29:02.139Z,8.18
2023-01-13T01:31:32.193Z,6.65
2023-01-13T01:34:00.192Z,7.72
2023-01-13T01:36:29.935Z,7.07
2023-01-13T01:38:58.583Z,7.33
2023-01-13T01:41:28.814Z,7.00
2023-01-13T01:44:40.304Z,6.65
2023-01-13T01:47:07.869Z,6.80
2023-01-13T01:49:36.904Z,6.75
2023-01-13T01:52:21.037Z,6.15
2023-01-13T01:55:22.538Z,6.50
2023-01-13T01:57:58.795Z,7.07
2023-01-13T02:00:28.369Z,6.60
2023-01-13T02:02:56.134Z,5.97
2023-01-13T02:05:23.754Z,6.53
2023-01-13T02:07:54.796Z,6.63
2023-01-13T02:10:24.210Z,7.28
2023-01-13T02:12:52.764Z,7.95
2023-01-13T02:15:46.871Z,6.40
2023-01-13T02:18:46.138Z,6.90
2023-01-13T02:21:38.391Z,5.78
2023-01-13T02:24:53.838Z,6.50
2023-01-13T02:27:41.620Z,6.32
2023-01-13T02:30:35.639Z,6.75
2023-01-13T02:33:27.366Z,7.68
2023-01-13T02:35:59.852Z,6.65
2023-01-13T02:38:54.886Z,6.43
2023-01-13T02:41:49.311Z,7.07
2023-01-13T02:44:24.318Z,5.72
2023-01-13T02:47:04.139Z,6.30
2023-01-13T02:49:43.602Z,6.95
2023-01-13T02:52:20.339Z,6.78
2023-01-13T02:54:53.447Z,7.13
2023-01-13T02:57:22.152Z,6.28
2023-01-13T02:59:49.399Z,6.85
2023-01-13T03:02:21.532Z,6.18
2023-01-13T03:04:57.021Z,6.47
2023-01-13T03:07:57.593Z,6.32
2023-01-13T03:10:38.119Z,6.18
2023-01-13T03:13:20.116Z,6.05
2023-01-13T03:16:01.413Z,6.53
2023-01-13T03:18:50.128Z,6.90
2023-01-13T03:21:32.808Z,6.55
2023-01-13T03:24:13.803Z,5.85
2023-01-13T03:26:58.305Z,5.40
2023-01-13T03:29:31.754Z,7.18
2023-01-13T03:32:34.858Z,6.55
2023-01-13T03:35:11.205Z,5.93
2023-01-13T03:37:42.502Z,5.68
2023-01-13T03:40:17.501Z,6.45
2023-01-13T03:43:08.001Z,6.25
2023-01-13T03:45:38.102Z,6.45
2023-01-13T03:48:10.946Z,6.65
2023-01-13T03:50:43.869Z,7.15
2023-01-13T03:53:16.206Z,6.60
2023-01-13T03:55:51.752Z,5.82
2023-01-13T03:58:25.683Z,7.80
2023-01-13T04:01:00.079Z,5.82
2023-01-13T04:03:36.497Z,7.45
2023-01-13T04:06:22.537Z,6.30
2023-01-13T04:08:55.632Z,7.35
2023-01-13T04:11:33.612Z,7.07
2023-01-13T04:14:03.425Z,6.38
2023-01-13T04:16:30.189Z,6.85
2023-01-13T04:18:56.937Z,7.35
2023-01-13T04:21:23.685Z,6.20
2023-01-13T04:23:51.576Z,6.35
2023-01-13T04:26:19.920Z,6.55
2023-01-13T04:28:46.962Z,7.40
2023-01-13T04:31:13.719Z,6.63
2023-01-13T04:33:40.748Z,7.22
2023-01-13T04:36:07.739Z,8.15
2023-01-13T04:38:34.424Z,6.85
2023-01-13T04:41:01.534Z,7.68
2023-01-13T04:43:28.371Z,6.57
2023-01-13T04:45:55.199Z,5.88
2023-01-13T04:48:21.925Z,6.22
2023-01-13T04:50:48.668Z,7.38
2023-01-13T04:53:15.381Z,6.65
2023-01-13T04:55:42.318Z,7.32
2023-01-13T04:58:10.535Z,6.55
2023-01-13T05:00:37.555Z,6.85
2023-01-13T05:03:05.114Z,6.65
2023-01-13T05:05:32.329Z,7.35
2023-01-13T05:07:59.036Z,6.95
2023-01-13T05:10:26.675Z,6.60
2023-01-13T05:13:11.855Z,7.32
2023-01-13T05:15:59.005Z,5.97
2023-01-13T05:18:26.777Z,6.13
2023-01-13T05:20:53.442Z,6.65
2023-01-13T05:23:38.619Z,5.68
2023-01-13T05:26:06.003Z,6.07
2023-01-13T05:28:34.012Z,6.38
2023-01-13T05:31:01.534Z,6.53
2023-01-13T05:33:28.329Z,6.55
2023-01-13T05:35:55.065Z,7.72
2023-01-13T05:38:21.864Z,6.63
2023-01-13T05:41:07.393Z,7.00
2023-01-13T05:43:35.046Z,5.82
2023-01-13T05:46:05.302Z,7.25
2023-01-13T05:48:34.942Z,6.00
2023-01-13T05:51:03.586Z,6.70
2023-01-13T05:53:30.786Z,5.47
2023-01-13T05:55:57.982Z,6.05
2023-01-13T05:58:26.800Z,5.70
2023-01-13T06:00:54.000Z,5.75
2023-01-13T06:03:20.658Z,6.15
2023-01-13T06:05:48.788Z,6.50
2023-01-13T06:08:15.573Z,6.25
2023-01-13T06:10:42.217Z,5.65
2023-01-13T06:13:09.208Z,6.05
2023-01-13T06:15:36.105Z,6.00
2023-01-13T06:18:04.747Z,5.20
2023-01-13T06:20:32.344Z,6.43
2023-01-13T06:22:59.605Z,5.43
2023-01-13T06:25:29.118Z,4.63
2023-01-13T06:27:59.233Z,5.30
2023-01-13T06:30:29.885Z,5.15
2023-01-13T06:33:01.895Z,5.18
2023-01-13T06:35:33.315Z,5.60
2023-01-13T06:38:03.899Z,5.47
2023-01-13T06:43:17.341Z,5.75
2023-01-13T06:45:47.315Z,5.10
2023-01-13T06:48:14.476Z,4.23
2023-01-13T06:50:42.423Z,4.63
2023-01-13T06:53:09.885Z,4.22
2023-01-13T06:55:36.990Z,4.97
2023-01-13T06:58:03.767Z,3.95
2023-01-13T07:00:32.369Z,4.85
2023-01-13T07:03:16.532Z,5.05
2023-01-13T07:05:50.779Z,4.47
2023-01-13T07:08:17.664Z,3.90
2023-01-13T07:10:44.559Z,4.40
2023-01-13T07:13:29.986Z,4.18
2023-01-13T07:16:02.258Z,4.43
2023-01-13T07:18:32.037Z,5.07
2023-01-13T07:21:09.581Z,3.93
2023-01-13T07:23:39.711Z,4.00
2023-01-13T07:26:08.289Z,6.13
2023-01-13T07:28:35.033Z,5.30
2023-01-13T07:31:02.278Z,4.70
2023-01-13T07:33:32.960Z,4.72
2023-01-13T07:36:02.599Z,4.00
2023-01-13T07:38:30.930Z,4.68
2023-01-13T07:40:57.783Z,4.72
2023-01-13T07:43:33.446Z,4.82
2023-01-13T07:46:03.252Z,5.15
2023-01-13T07:48:32.001Z,5.20
2023-01-13T07:51:07.635Z,5.18
2023-01-13T07:53:35.131Z,4.47
2023-01-13T07:56:03.679Z,4.78
2023-01-13T07:58:30.751Z,5.10
2023-01-13T08:00:58.192Z,4.10
2023-01-13T08:03:25.343Z,5.07
2023-01-13T08:05:52.707Z,5.10
2023-01-13T08:08:19.729Z,4.90
2023-01-13T08:10:47.617Z,5.05
2023-01-13T08:13:22.197Z,5.85
2023-01-13T08:15:52.049Z,4.85
2023-01-13T08:18:22.148Z,4.57
2023-01-13T08:20:53.052Z,4.78
2023-01-13T08:23:21.283Z,4.93
2023-01-13T08:25:48.612Z,6.40
2023-01-13T08:28:16.297Z,4.78
2023-01-13T08:30:43.731Z,5.38
2023-01-13T08:33:12.015Z,5.25
2023-01-13T08:35:40.628Z,5.45
2023-01-13T08:38:08.218Z,4.82
2023-01-13T08:40:35.665Z,6.78
2023-01-13T08:43:03.221Z,4.95
2023-01-13T08:45:30.260Z,5.13
2023-01-13T08:47:57.480Z,5.82
2023-01-13T08:50:24.581Z,7.13
2023-01-13T08:52:51.318Z,5.90
2023-01-13T08:55:18.120Z,5.18
2023-01-13T08:57:45.126Z,5.88
2023-01-13T09:00:13.040Z,5.97
2023-01-13T09:02:39.845Z,4.75
2023-01-13T09:05:08.584Z,6.05
2023-01-13T09:07:37.303Z,4.78
2023-01-13T09:10:05.865Z,6.00
2023-01-13T09:12:51.153Z,5.78
2023-01-13T09:15:18.662Z,5.50
2023-01-13T09:17:45.976Z,5.75
2023-01-13T09:20:13.708Z,5.05
2023-01-13T09:22:41.542Z,5.25
2023-01-13T09:25:09.075Z,4.97
2023-01-13T09:27:36.621Z,4.78
2023-01-13T09:30:03.955Z,5.80
2023-01-13T09:32:30.783Z,4.72
2023-01-13T09:35:00.463Z,4.60
2023-01-13T09:37:38.522Z,6.03
2023-01-13T09:40:18.365Z,5.80
2023-01-13T09:43:35.600Z,5.55
2023-01-13T09:46:31.573Z,5.90
2023-01-13T09:48:59.863Z,5.75
2023-01-13T09:51:31.776Z,5.78
2023-01-13T09:54:27.982Z,6.07
2023-01-13T09:56:54.728Z,6.50
2023-01-13T09:59:21.660Z,5.75
2023-01-13T10:02:00.366Z,4.45
2023-01-13T10:04:28.050Z,6.55
2023-01-13T10:07:03.856Z,4.90
2023-01-13T10:09:36.707Z,7.05
2023-01-13T10:12:24.556Z,6.13
2023-01-13T10:14:57.364Z,4.40
2023-01-13T10:18:02.294Z,4.63
2023-01-13T10:20:34.433Z,4.55
2023-01-13T10:23:14.544Z,4.97
2023-01-13T10:25:47.447Z,3.95
2023-01-13T10:28:19.448Z,4.78
2023-01-13T10:30:47.771Z,4.45
2023-01-13T10:33:21.403Z,4.55
2023-01-13T10:35:59.535Z,5.80
2023-01-13T10:38:35.559Z,5.57
2023-01-13T10:41:06.386Z,4.57
2023-01-13T10:43:33.088Z,5.65
2023-01-13T10:46:06.008Z,5.40
2023-01-13T10:49:00.114Z,5.45
2023-01-13T10:51:43.245Z,5.38
2023-01-13T10:54:13.246Z,5.65
2023-01-13T10:56:42.277Z,4.70
2023-01-13T10:59:29.961Z,5.70
2023-01-13T11:02:16.247Z,5.78
2023-01-13T11:04:54.526Z,4.97
2023-01-13T11:07:35.810Z,5.78
2023-01-13T11:10:22.999Z,6.20
2023-01-13T11:13:08.723Z,4.38
2023-01-13T11:15:54.139Z,5.47
2023-01-13T11:18:34.573Z,4.85
2023-01-13T11:21:06.954Z,4.85
2023-01-13T11:23:50.197Z,4.20
2023-01-13T11:26:27.357Z,4.68
2023-01-13T11:29:15.061Z,5.20
2023-01-13T11:32:00.739Z,5.15
2023-01-13T11:34:32.589Z,6.85
2023-01-13T11:37:02.246Z,6.03
2023-01-13T11:39:47.772Z,4.07
2023-01-13T11:42:27.039Z,3.75
2023-01-13T11:45:06.057Z,3.40
2023-01-13T11:47:35.198Z,3.78
2023-01-13T11:50:02.582Z,4.32
2023-01-13T11:53:07.777Z,4.07
2023-01-13T11:56:06.739Z,4.03
2023-01-13T11:58:51.464Z,3.40
2023-01-13T12:01:43.798Z,4.32
2023-01-13T12:04:23.745Z,3.70
2023-01-13T12:07:22.149Z,4.13
2023-01-13T12:10:03.663Z,5.03
2023-01-13T12:12:51.639Z,4.50
2023-01-13T12:15:21.602Z,4.45
2023-01-13T12:18:25.421Z,3.33
2023-01-13T12:21:01.624Z,4.03
2023-01-13T12:23:35.754Z,3.78
2023-01-13T12:26:10.654Z,4.88
2023-01-13T12:28:54.948Z,4.13
2023-01-13T12:31:23.529Z,5.13
2023-01-13T12:33:59.083Z,3.50
2023-01-13T12:36:40.331Z,4.35
2023-01-13T12:39:24.095Z,3.80
2023-01-13T12:42:36.205Z,3.08
2023-01-13T12:45:12.506Z,3.53
2023-01-13T12:47:45.715Z,3.72
2023-01-13T12:50:27.401Z,3.45
2023-01-13T12:52:56.586Z,2.60
2023-01-13T12:55:33.406Z,3.58
2023-01-13T12:58:15.144Z,3.60
2023-01-13T13:00:41.857Z,4.00
2023-01-13T13:03:11.150Z,3.83
2023-01-13T13:05:59.053Z,3.72
2023-01-13T13:08:32.400Z,3.03
2023-01-13T13:11:35.061Z,3.40
2023-01-13T13:14:13.626Z,2.90
2023-01-13T13:16:49.564Z,3.03
2023-01-13T13:19:20.175Z,3.50
2023-01-13T13:24:33.827Z,3.92
2023-01-13T13:27:22.567Z,3.47
2023-01-13T13:30:13.391Z,4.55
2023-01-13T13:32:52.055Z,4.00
2023-01-13T13:35:29.105Z,3.30
2023-01-13T13:38:20.626Z,2.92
2023-01-13T13:41:06.855Z,2.90
2023-01-13T13:43:58.924Z,3.40
2023-01-13T13:46:49.547Z,3.55
2023-01-13T13:49:21.934Z,3.03
2023-01-13T13:51:49.458Z,3.28
2023-01-13T13:54:20.085Z,3.17
2023-01-13T13:59:20.953Z,3.10
2023-01-13T14:02:00.767Z,4.20
2023-01-13T14:04:32.968Z,2.97
2023-01-13T14:07:05.110Z,2.72
2023-01-13T14:09:44.179Z,3.53
2023-01-13T14:12:20.069Z,3.08
2023-01-13T14:14:48.226Z,3.83
2023-01-13T14:17:27.405Z,3.40
2023-01-13T14:20:00.406Z,3.60
2023-01-13T14:22:27.247Z,3.20
2023-01-13T14:24:58.249Z,3.88
2023-01-13T14:27:27.775Z,2.83
2023-01-13T14:29:58.146Z,3.00
2023-01-13T14:32:35.216Z,3.10
2023-01-13T14:35:02.083Z,3.13
2023-01-13T14:37:28.660Z,3.22
2023-01-13T14:39:55.831Z,3.20
2023-01-13T14:42:22.754Z,3.83
2023-01-13T14:44:52.564Z,2.88
2023-01-13T14:47:20.022Z,3.35
2023-01-13T14:50:02.264Z,3.95
2023-01-13T14:52:48.550Z,2.92
2023-01-13T14:55:21.278Z,3.83
2023-01-13T14:57:49.763Z,3.22
2023-01-13T15:00:16.830Z,3.83
2023-01-13T15:02:59.132Z,2.42
2023-01-13T15:05:25.940Z,2.70
2023-01-13T15:07:55.836Z,2.83
2023-01-13T15:10:27.673Z,2.65
2023-01-13T15:12:56.484Z,3.03
2023-01-13T15:15:39.475Z,2.90
2023-01-13T15:18:13.293Z,2.65
2023-01-13T15:20:41.867Z,3.17
2023-01-13T15:23:09.331Z,3.65
2023-01-13T15:25:39.360Z,2.55
2023-01-13T15:28:07.711Z,3.10
2023-01-13T15:30:34.568Z,3.35
2023-01-13T15:33:01.464Z,3.13
2023-01-13T15:35:29.172Z,2.78
2023-01-13T15:37:57.253Z,3.90
2023-01-13T15:40:32.579Z,3.42
2023-01-13T15:43:18.166Z,3.20
2023-01-13T15:46:04.795Z,3.33
2023-01-13T15:48:33.001Z,2.97
2023-01-13T15:51:00.903Z,2.92
2023-01-13T15:53:29.011Z,3.20
2023-01-13T15:55:57.975Z,3.47
2023-01-13T15:58:29.608Z,2.80
2023-01-13T16:00:56.672Z,3.65
2023-01-13T16:03:23.537Z,2.60
2023-01-13T16:05:50.275Z,2.95
2023-01-13T16:08:22.853Z,3.55
2023-01-13T16:10:50.740Z,2.85
2023-01-13T16:13:18.213Z,3.05
2023-01-13T16:15:48.564Z,2.95
2023-01-13T16:18:23.838Z,2.72
2023-01-13T16:20:53.970Z,3.00
2023-01-13T16:23:22.597Z,3.78
2023-01-13T16:25:50.294Z,3.08
2023-01-13T16:28:26.793Z,2.92
2023-01-13T16:30:54.050Z,3.72
2023-01-13T16:33:20.862Z,2.70
2023-01-13T16:36:10.428Z,3.00
2023-01-13T16:38:34.609Z,2.58
2023-01-13T16:41:01.759Z,2.80
2023-01-13T16:43:28.399Z,3.60
2023-01-13T16:45:55.168Z,3.97
2023-01-13T16:48:22.907Z,2.63
2023-01-13T16:50:49.630Z,3.25
2023-01-13T16:53:16.575Z,3.38
2023-01-13T16:55:43.787Z,2.60
2023-01-13T16:58:18.816Z,3.80
2023-01-13T17:00:49.089Z,3.47
2023-01-13T17:03:16.652Z,3.95
2023-01-13T17:05:46.807Z,3.40
2023-01-13T17:08:17.428Z,3.53
2023-01-13T17:13:16.409Z,3.92
2023-01-13T17:15:44.642Z,3.00
2023-01-13T17:18:13.431Z,3.40
2023-01-13T17:20:40.851Z,3.58
2023-01-13T17:23:07.985Z,3.85
2023-01-13T17:25:34.645Z,3.70
2023-01-13T17:28:01.390Z,4.72
2023-01-13T17:30:28.263Z,3.85
2023-01-13T17:32:54.961Z,4.13
2023-01-13T17:35:24.853Z,3.10
2023-01-13T17:37:53.180Z,3.67
2023-01-13T17:40:20.507Z,3.83
2023-01-13T17:42:47.224Z,3.53
2023-01-13T17:45:14.492Z,3.33
2023-01-13T17:47:41.148Z,3.50
2023-01-13T17:50:08.460Z,4.10
2023-01-13T17:52:35.457Z,4.05
2023-01-13T17:55:03.136Z,3.88
2023-01-13T17:57:29.818Z,3.92
2023-01-13T17:59:58.754Z,3.67
2023-01-13T18:02:26.413Z,3.92
2023-01-13T18:04:53.195Z,3.40
2023-01-13T18:07:20.380Z,4.18
2023-01-13T18:09:47.143Z,3.97
2023-01-13T18:12:14.618Z,4.03
2023-01-13T18:14:41.735Z,3.10
2023-01-13T18:17:08.559Z,4.15
2023-01-13T18:19:53.816Z,3.90
2023-01-13T18:22:39.238Z,3.80
2023-01-13T18:25:25.318Z,3.70
2023-01-13T18:27:52.163Z,3.70
2023-01-13T18:30:19.088Z,3.60
2023-01-13T18:32:45.904Z,4.05
2023-01-13T18:35:12.664Z,4.30
2023-01-13T18:37:42.217Z,4.32
2023-01-13T18:40:11.755Z,4.23
2023-01-13T18:42:59.124Z,5.13
2023-01-13T18:45:31.037Z,3.88
2023-01-13T18:48:00.208Z,4.25
2023-01-13T18:50:28.250Z,4.03
2023-01-13T18:52:55.675Z,5.07
2023-01-13T18:55:22.862Z,3.70
2023-01-13T18:57:50.436Z,4.43
2023-01-13T19:00:20.130Z,3.65
2023-01-13T19:02:47.439Z,3.23
2023-01-13T19:05:14.678Z,3.78
2023-01-13T19:07:43.513Z,5.25
2023-01-13T19:10:13.055Z,3.60
2023-01-13T19:12:39.875Z,4.47
2023-01-13T19:15:07.379Z,3.92
2023-01-13T19:17:35.193Z,3.35
2023-01-13T19:20:04.056Z,3.72
2023-01-13T19:22:33.767Z,3.92
2023-01-13T19:25:01.842Z,3.67
2023-01-13T19:27:28.854Z,3.92
2023-01-13T19:30:01.486Z,3.80
2023-01-13T19:32:30.942Z,3.50
2023-01-13T19:34:59.541Z,4.80
2023-01-13T19:37:30.956Z,3.67
2023-01-13T19:39:59.138Z,3.60
2023-01-13T19:42:44.957Z,3.65
2023-01-13T19:45:27.840Z,3.05
2023-01-13T19:47:56.356Z,3.70
2023-01-13T19:50:24.251Z,3.78
2023-01-13T19:52:51.247Z,3.45
2023-01-13T19:55:19.959Z,3.60
2023-01-13T19:57:47.120Z,3.85
2023-01-13T20:00:18.351Z,3.65
2023-01-13T20:02:49.451Z,3.15
2023-01-13T20:05:21.818Z,3.78
2023-01-13T20:07:50.148Z,3.60
2023-01-13T20:10:19.091Z,3.45
2023-01-13T20:12:45.883Z,3.38
2023-01-13T20:15:12.694Z,2.85
2023-01-13T20:17:41.472Z,2.80
2023-01-13T20:20:10.003Z,2.85
2023-01-13T20:22:38.402Z,2.15
2023-01-13T20:25:05.628Z,2.00
2023-01-13T20:27:32.480Z,1.90
2023-01-13T20:29:59.337Z,2.20
2023-01-13T20:32:26.153Z,2.30
2023-01-13T20:34:52.856Z,2.08
2023-01-13T20:37:19.509Z,1.90
2023-01-13T20:39:47.007Z,2.00
2023-01-13T20:42:29.205Z,1.88
2023-01-13T20:45:00.844Z,2.30
2023-01-13T20:47:29.513Z,2.20
2023-01-13T20:49:56.685Z,2.03
2023-01-13T20:52:23.585Z,2.70
2023-01-13T20:54:50.345Z,2.70
2023-01-13T20:57:17.359Z,2.42
2023-01-13T20:59:44.332Z,2.45
2023-01-13T21:02:13.625Z,2.40
2023-01-13T21:04:41.262Z,2.50
2023-01-13T21:07:08.670Z,3.17
2023-01-13T21:09:35.892Z,2.78
2023-01-13T21:12:21.473Z,2.97
2023-01-13T21:15:06.786Z,2.45
2023-01-13T21:17:52.364Z,1.50
2023-01-13T21:20:19.311Z,2.42
2023-01-13T21:22:47.844Z,2.22
2023-01-13T21:25:16.657Z,2.15
2023-01-13T21:27:44.128Z,2.35
2023-01-13T21:30:15.527Z,1.80
2023-01-13T21:32:44.459Z,1.60
2023-01-13T21:35:12.978Z,2.10
2023-01-13T21:37:41.430Z,1.90
2023-01-13T21:40:10.327Z,1.90
2023-01-13T21:42:55.680Z,2.03
2023-01-13T21:45:41.305Z,2.33
2023-01-13T21:48:08.072Z,2.10
2023-01-13T21:50:36.403Z,3.33
2023-01-13T21:53:03.595Z,3.63
2023-01-13T21:55:31.329Z,2.88
2023-01-13T21:58:14.447Z,2.47
2023-01-13T22:00:43.611Z,2.78
2023-01-13T22:03:11.772Z,2.88
2023-01-13T22:05:38.977Z,3.63
2023-01-13T22:08:06.097Z,3.05
2023-01-13T22:10:32.975Z,2.55
2023-01-13T22:13:22.650Z,2.92
2023-01-13T22:15:49.679Z,2.97
2023-01-13T22:18:18.336Z,2.33
2023-01-13T22:20:45.726Z,2.50
2023-01-13T22:23:12.693Z,1.88
2023-01-13T22:25:39.410Z,2.25
2023-01-13T22:28:09.192Z,1.83
2023-01-13T22:30:36.029Z,1.92
2023-01-13T22:33:02.986Z,1.35
2023-01-13T22:35:30.012Z,1.85
2023-01-13T22:37:56.908Z,1.58
2023-01-13T22:40:23.642Z,1.48
2023-01-13T22:42:50.390Z,1.83
2023-01-13T22:45:17.232Z,1.50
2023-01-13T22:47:44.011Z,1.80
2023-01-13T22:50:12.677Z,2.20
2023-01-13T22:52:39.546Z,2.15
2023-01-13T22:55:06.989Z,3.08
2023-01-13T22:57:47.263Z,2.30
2023-01-13T23:00:23.091Z,2.42
2023-01-13T23:02:49.744Z,2.90
2023-01-13T23:05:16.509Z,2.55
2023-01-13T23:07:43.098Z,2.75
2023-01-13T23:10:10.502Z,2.78
2023-01-13T23:12:37.247Z,3.45
2023-01-13T23:15:04.445Z,2.70
2023-01-13T23:17:31.591Z,3.08
2023-01-13T23:19:58.540Z,2.70
2023-01-13T23:22:25.225Z,3.15
2023-01-13T23:24:52.113Z,3.22
2023-01-13T23:27:18.901Z,3.75
2023-01-13T23:29:45.591Z,3.00
2023-01-13T23:32:12.353Z,3.25
2023-01-13T23:34:39.049Z,3.40
2023-01-13T23:37:05.770Z,3.60
2023-01-13T23:39:32.512Z,3.72
2023-01-13T23:41:59.595Z,3.70
2023-01-13T23:44:26.335Z,3.90
2023-01-13T23:46:53.194Z,4.53
2023-01-13T23:49:20.556Z,3.88
2023-01-13T23:51:50.905Z,4.60
2023-01-13T23:54:18.331Z,4.47
2023-01-13T23:56:45.264Z,4.05
2023-01-13T23:59:11.986Z,3.70
